Time;durP1;ratioP1;P1;durP2;ratioP2;P2;SDS_P1;SDS_P2;PMS_P1;PMS_P2;Temp;Humidity;BMP_temperature;BMP_pressure;BME280_temperature;BME280_humidity;BME280_pressure;Samples;Min_cycle;Max_cycle;Signal;HPM_P1;HPM_P2
2022/09/01 00:01:24;;;;;;;24.48;21.92;;;;;;;24.74;56.85;94269.28;5018926;27;99342;-66
2022/09/01 00:03:51;;;;;;;38.38;34.50;;;;;;;24.75;54.51;94265.31;5018712;28;96903;-67
2022/09/01 00:06:23;;;;;;;45.83;41.28;;;;;;;24.76;54.44;94266.88;5018492;28;97043;-67
2022/09/01 00:08:52;;;;;;;28.77;25.52;;;;;;;24.76;53.90;94266.88;5018969;28;99718;-70
2022/09/01 00:11:18;;;;;;;25.58;22.58;;;;;;;24.73;53.69;94256.69;5018296;28;101346;-68
2022/09/01 00:13:43;;;;;;;23.73;21.17;;;;;;;24.78;54.17;94264.44;5017209;28;98593;-67
2022/09/01 00:16:12;;;;;;;23.25;20.73;;;;;;;24.79;54.02;94260.47;5020725;28;96936;-67
2022/09/01 00:18:41;;;;;;;22.67;20.23;;;;;;;24.80;54.08;94256.50;5018253;28;99677;-68
2022/09/01 00:21:08;;;;;;;22.73;19.92;;;;;;;24.77;54.14;94240.81;5017905;28;99865;-70
2022/09/01 00:23:33;;;;;;;21.92;19.40;;;;;;;24.74;53.97;94244.44;5018717;28;98686;-66
2022/09/01 00:25:59;;;;;;;20.08;18.00;;;;;;;24.82;53.68;94247.78;5018432;28;97030;-67
2022/09/01 00:28:24;;;;;;;21.02;18.65;;;;;;;24.83;53.37;94244.59;5018450;28;102202;-66
2022/09/01 00:30:49;;;;;;;22.45;18.42;;;;;;;24.81;54.46;94235.97;5018253;28;99363;-67
2022/09/01 00:33:15;;;;;;;17.73;15.82;;;;;;;24.88;53.40;94256.31;5018713;28;97290;-72
2022/09/01 00:39:03;;;;;;;28.48;25.45;;;;;;;24.88;55.33;94265.34;5015305;28;97352;-70
2022/09/01 00:41:30;;;;;;;32.08;28.83;;;;;;;24.86;56.15;94265.81;5013241;28;99739;-70
2022/09/01 00:44:00;;;;;;;26.90;24.00;;;;;;;24.84;53.67;94268.22;5010236;28;97145;-70
2022/09/01 00:46:31;;;;;;;24.65;22.05;;;;;;;24.82;52.59;94267.09;5011018;28;97023;-69
2022/09/01 00:49:18;;;;;;;24.10;21.43;;;;;;;24.82;53.01;94267.09;5009760;28;99668;-72
2022/09/01 00:51:46;;;;;;;25.58;22.02;;;;;;;24.79;52.65;94267.97;5008706;28;99338;-70
2022/09/01 00:54:14;;;;;;;24.77;22.08;;;;;;;24.79;52.67;94265.22;5009372;28;97097;-70
2022/09/01 00:56:40;;;;;;;23.83;21.40;;;;;;;24.78;53.13;94269.19;5010873;28;97139;-69
2022/09/01 00:59:05;;;;;;;24.60;21.38;;;;;;;24.75;52.52;94264.53;5008782;28;99687;-74
2022/09/01 01:01:33;;;;;;;24.80;21.85;;;;;;;24.79;53.06;94277.06;5008718;28;99448;-72
2022/09/01 01:04:00;;;;;;;23.23;20.70;;;;;;;24.79;52.71;94276.25;5008339;28;97024;-72
2022/09/01 01:06:28;;;;;;;23.77;20.65;;;;;;;24.71;52.90;94256.31;5009200;28;97057;-70
2022/09/01 01:08:57;;;;;;;23.42;21.00;;;;;;;24.77;52.86;94273.94;4991305;28;99847;-70
2022/09/01 01:11:24;;;;;;;24.42;20.83;;;;;;;24.77;52.69;94268.44;5008024;28;99808;-69
2022/09/01 01:14:04;;;;;;;23.13;20.63;;;;;;;24.77;52.61;94273.94;5009271;28;96706;-69
2022/09/01 01:16:30;;;;;;;22.55;20.17;;;;;;;24.76;52.62;94272.41;5010682;28;97141;-75
2022/09/01 01:18:55;;;;;;;21.60;19.30;;;;;;;24.74;52.71;94283.09;5010183;28;99878;-70
2022/09/01 01:24:30;;;;;;;21.95;19.60;;;;;;;24.70;52.73;94279.63;5008275;28;97322;-69
2022/09/01 01:26:58;;;;;;;20.52;18.30;;;;;;;24.71;52.75;94287.50;5010647;28;97198;-69
2022/09/01 01:29:30;;;;;;;21.35;19.05;;;;;;;24.71;52.89;94286.69;5009369;28;99990;-69
2022/09/01 01:31:55;;;;;;;;;;;;;;;24.69;53.19;94278.06;5010843;28;99752;-69
2022/09/01 01:34:22;;;;;;;21.53;17.87;;;;;;;24.65;53.11;94282.91;5010516;28;97030;-71
2022/09/01 01:36:49;;;;;;;22.15;17.88;;;;;;;24.62;52.78;94272.75;5010974;28;97096;-71
2022/09/01 01:39:19;;;;;;;19.40;17.27;;;;;;;24.62;52.88;94276.28;5010011;28;99773;-70
2022/09/01 01:41:47;;;;;;;18.67;16.55;;;;;;;24.66;52.72;94278.94;5010156;28;99378;-70
2022/09/01 01:44:14;;;;;;;19.50;17.42;;;;;;;24.67;52.72;94281.28;5010459;28;96713;-69
2022/09/01 01:46:41;;;;;;;19.55;17.42;;;;;;;24.67;52.99;94280.50;5010862;28;96925;-72
2022/09/01 01:49:08;;;;;;;19.00;15.80;;;;;;;24.63;52.66;94282.56;5008968;28;100187;-70
2022/09/01 01:51:33;;;;;;;18.90;16.77;;;;;;;24.66;52.84;94287.22;5010130;28;99620;-70
2022/09/01 01:54:04;;;;;;;19.23;16.23;;;;;;;24.66;52.90;94285.25;5009923;28;96855;-69
2022/09/01 01:56:31;;;;;;;17.58;15.68;;;;;;;24.65;52.78;94299.47;5010448;28;96875;-69
2022/09/01 01:58:57;;;;;;;17.77;15.93;;;;;;;24.67;52.75;94297.06;5010967;28;100028;-68
2022/09/01 02:01:24;;;;;;;18.08;15.32;;;;;;;24.67;52.58;94302.59;5014003;28;99704;-70
2022/09/01 02:03:51;;;;;;;17.63;15.80;;;;;;;24.66;52.76;94301.81;5014187;28;97042;-71
2022/09/01 02:06:18;;;;;;;18.15;15.82;;;;;;;24.64;52.63;94303.47;5014340;28;96991;-72
2022/09/01 02:08:44;;;;;;;17.50;14.45;;;;;;;24.65;52.41;94305.78;5013819;28;99660;-72
2022/09/01 02:11:12;;;;;;;15.80;14.10;;;;;;;24.65;52.71;94303.03;5014077;28;99556;-73
2022/09/01 02:13:37;;;;;;;16.67;14.48;;;;;;;24.63;52.73;94301.91;5013782;28;97810;-74
2022/09/01 02:16:11;;;;;;;19.10;14.48;;;;;;;24.61;52.33;94296.03;5013796;28;97030;-71
2022/09/01 02:18:40;;;;;;;15.57;13.93;;;;;;;24.63;52.49;94307.44;5013159;28;99734;-69
2022/09/01 02:21:09;;;;;;;15.38;13.77;;;;;;;24.63;52.17;94301.91;5013754;28;99387;-68
2022/09/01 02:23:35;;;;;;;16.52;14.35;;;;;;;24.60;52.25;94300.00;5013776;28;96823;-72
2022/09/01 02:26:01;;;;;;;15.95;14.00;;;;;;;24.61;51.98;94298.81;5013837;28;97022;-69
2022/09/01 02:28:27;;;;;;;17.50;14.13;;;;;;;24.62;52.29;94303.13;5013533;28;99587;-70
2022/09/01 02:30:56;;;;;;;17.55;14.38;;;;;;;24.62;52.17;94300.34;5013016;28;99298;-70
2022/09/01 02:33:22;;;;;;;15.20;13.48;;;;;;;24.62;52.33;94300.34;5014118;28;96757;-70
2022/09/01 02:35:50;;;;;;;15.93;14.20;;;;;;;24.61;52.12;94296.03;5014470;28;96957;-73
2022/09/01 02:38:16;;;;;;;15.18;13.23;;;;;;;24.60;52.33;94295.28;5013425;28;99401;-69
2022/09/01 02:40:45;;;;;;;17.27;13.13;;;;;;;24.57;52.10;94293.38;5013197;28;99509;-68
2022/09/01 02:43:11;;;;;;;14.95;12.95;;;;;;;24.60;52.26;94294.50;5013197;28;96887;-72
2022/09/01 02:45:36;;;;;;;15.73;13.48;;;;;;;24.58;52.05;94290.19;5013849;28;96779;-69
2022/09/01 02:48:06;;;;;;;15.77;13.70;;;;;;;24.54;51.99;94283.22;5028805;28;99718;-69
2022/09/01 02:50:32;;;;;;;16.30;13.18;;;;;;;24.56;52.18;94287.06;5013414;28;97841;-73
2022/09/01 02:52:59;;;;;;;18.80;13.57;;;;;;;24.56;52.32;94284.31;5013556;28;96820;-71
2022/09/01 02:55:25;;;;;;;15.45;12.50;;;;;;;24.56;52.20;94287.06;5013551;28;97124;-69
2022/09/01 02:57:54;;;;;;;15.85;13.02;;;;;;;24.55;51.99;94280.00;5013196;28;100024;-70
2022/09/01 03:00:21;;;;;;;14.90;12.63;;;;;;;24.55;51.93;94276.47;5013655;28;99165;-69
2022/09/01 03:02:51;;;;;;;15.27;12.10;;;;;;;24.49;51.83;94265.16;5013613;28;96843;-71
2022/09/01 03:05:24;;;;;;;16.52;12.95;;;;;;;24.54;52.13;94278.44;5013830;28;96916;-70
2022/09/01 03:07:55;;;;;;;13.45;12.05;;;;;;;24.55;51.91;94279.25;5012781;28;99826;-71
2022/09/01 03:10:22;;;;;;;14.25;12.63;;;;;;;24.50;51.88;94277.00;5012275;28;99166;-69
2022/09/01 03:12:48;;;;;;;14.88;12.00;;;;;;;24.52;51.80;94278.09;5013612;28;97355;-71
2022/09/01 03:15:13;;;;;;;15.50;12.55;;;;;;;24.53;51.89;94282.41;5013598;28;97943;-70
2022/09/01 03:17:40;;;;;;;18.02;13.10;;;;;;;24.52;52.01;94286.38;5012554;28;104623;-70
2022/09/01 03:20:06;;;;;;;15.57;12.80;;;;;;;24.51;51.79;94273.78;5012950;28;99277;-71
2022/09/01 03:22:32;;;;;;;13.95;12.25;;;;;;;24.51;52.00;94273.78;5013000;28;97092;-70
2022/09/01 03:24:58;;;;;;;14.88;12.23;;;;;;;24.45;51.64;94264.50;5013624;28;96937;-71
2022/09/01 03:27:23;;;;;;;18.88;12.50;;;;;;;24.52;51.60;94285.63;5013090;28;99493;-69
2022/09/01 03:29:49;;;;;;;15.60;13.07;;;;;;;24.51;51.55;94279.31;5012887;28;99288;-73
2022/09/01 03:32:14;;;;;;;18.08;12.00;;;;;;;24.51;51.87;94282.06;5012735;28;97152;-72
2022/09/01 03:34:40;;;;;;;15.82;12.18;;;;;;;24.51;51.68;94282.06;5013083;28;97114;-73
2022/09/01 03:37:06;;;;;;;15.73;12.90;;;;;;;24.51;51.38;94289.59;5012867;28;99663;-73
2022/09/01 03:39:32;;;;;;;15.10;12.35;;;;;;;24.51;51.27;94287.59;5012509;28;99022;-69
2022/09/01 03:41:58;;;;;;;14.25;11.93;;;;;;;24.52;51.64;94291.91;5013084;28;96837;-72
2022/09/01 03:44:24;;;;;;;13.65;11.77;;;;;;;24.51;51.71;94293.13;5011546;28;97250;-70
2022/09/01 03:46:50;;;;;;;15.70;12.15;;;;;;;24.52;51.33;94291.91;5012652;28;99750;-72
2022/09/01 03:49:23;;;;;;;12.48;10.98;;;;;;;24.52;51.44;94294.66;5012777;28;99421;-71
2022/09/01 03:51:51;;;;;;;14.52;11.85;;;;;;;24.48;51.08;94284.94;5012932;28;97232;-71
2022/09/01 03:54:17;;;;;;;13.18;11.80;;;;;;;24.50;51.10;94283.28;5012626;28;96940;-72
2022/09/01 03:56:44;;;;;;;16.08;11.82;;;;;;;24.49;51.27;94287.25;5011911;28;99740;-69
2022/09/01 03:59:15;;;;;;;13.05;11.15;;;;;;;24.50;51.18;94283.28;5011172;28;99905;-70
2022/09/01 04:01:42;;;;;;;13.27;11.65;;;;;;;24.50;51.34;94280.53;5012540;28;96784;-69
2022/09/01 04:04:12;;;;;;;14.45;11.32;;;;;;;24.44;51.50;94279.50;5012405;28;97093;-71
2022/09/01 04:06:38;;;;;;;13.40;11.20;;;;;;;24.47;51.19;94284.16;5012207;28;100615;-71
2022/09/01 04:09:04;;;;;;;14.93;11.20;;;;;;;24.48;51.32;94291.22;5011912;28;99684;-72
2022/09/01 04:11:30;;;;;;;14.75;11.70;;;;;;;24.49;51.32;94290.00;5012354;28;96756;-68
2022/09/01 04:13:56;;;;;;;12.63;10.70;;;;;;;24.44;51.20;94282.25;5013017;28;97104;-68
2022/09/01 04:19:18;;;;;;;13.32;11.00;;;;;;;24.43;50.95;94277.97;5009787;28;96908;-69
2022/09/01 04:21:49;;;;;;;13.77;11.05;;;;;;;24.48;51.01;94285.69;5011458;28;96752;-71
2022/09/01 04:24:14;;;;;;;14.88;10.60;;;;;;;24.46;51.16;94290.88;5012056;28;96722;-71
2022/09/01 04:26:40;;;;;;;14.77;11.23;;;;;;;24.49;51.26;94286.50;5011928;28;100062;-71
2022/09/01 04:29:09;;;;;;;15.10;11.98;;;;;;;24.48;51.28;94288.47;5010984;28;99571;-71
2022/09/01 04:31:37;;;;;;;14.10;10.95;;;;;;;24.44;51.02;94285.03;5011843;28;97318;-72
2022/09/01 04:34:11;;;;;;;15.52;11.50;;;;;;;24.48;50.90;94288.47;5012008;28;96894;-71
2022/09/01 04:36:39;;;;;;;11.82;10.25;;;;;;;24.48;50.89;94285.69;5011731;28;100115;-71
2022/09/01 04:39:07;;;;;;;12.88;10.48;;;;;;;24.46;51.02;94293.63;5010570;28;99217;-71
2022/09/01 04:41:33;;;;;;;13.02;11.20;;;;;;;24.45;51.41;94288.56;5011456;28;97137;-68
2022/09/01 04:44:03;;;;;;;14.00;10.82;;;;;;;24.44;51.02;94285.03;5011727;28;96929;-68
2022/09/01 04:46:30;;;;;;;12.48;10.90;;;;;;;24.47;51.01;94289.66;5010859;28;101135;-71
2022/09/01 04:48:56;;;;;;;13.52;12.13;;;;;;;24.47;51.11;94289.66;5010319;28;99219;-68
2022/09/01 04:51:23;;;;;;;13.13;11.38;;;;;;;24.44;51.14;94287.78;5011535;28;96928;-74
2022/09/01 04:53:48;;;;;;;14.95;11.48;;;;;;;24.30;51.12;94264.09;5010540;28;97728;-69
2022/09/01 04:56:18;;;;;;;13.25;11.30;;;;;;;24.45;50.99;94278.28;5011238;28;99490;-70
2022/09/01 04:58:45;;;;;;;16.42;12.60;;;;;;;24.44;51.02;94282.25;5011184;28;99805;-70
2022/09/01 05:01:21;;;;;;;15.82;11.27;;;;;;;24.45;51.39;94280.28;5011441;28;97065;-69
2022/09/01 05:03:55;;;;;;;14.48;11.88;;;;;;;24.46;51.15;94282.59;5011998;28;96801;-69
2022/09/01 05:06:20;;;;;;;14.50;11.55;;;;;;;24.45;51.20;94281.03;5011520;28;99605;-72
2022/09/01 05:08:46;;;;;;;14.50;11.55;;;;;;;24.46;50.93;94281.84;5011259;28;99640;-70
2022/09/01 05:11:15;;;;;;;16.65;11.63;;;;;;;24.47;50.95;94292.44;5010773;28;96879;-71
2022/09/01 05:13:42;;;;;;;14.40;11.77;;;;;;;24.46;51.23;94288.13;5011615;28;96968;-69
2022/09/01 05:16:11;;;;;;;15.18;11.40;;;;;;;24.41;51.10;94281.16;5011139;28;97992;-70
2022/09/01 05:18:43;;;;;;;15.75;11.68;;;;;;;24.45;51.17;94281.03;5010869;28;99195;-71
2022/09/01 05:21:13;;;;;;;16.10;11.75;;;;;;;24.45;51.14;94278.28;5011129;28;97033;-72
2022/09/01 05:23:39;;;;;;;15.57;11.90;;;;;;;24.43;51.11;94278.75;5011395;28;97043;-70
2022/09/01 05:26:13;;;;;;;14.68;11.15;;;;;;;24.45;51.07;94283.81;5011035;28;99748;-73
2022/09/01 05:28:40;;;;;;;16.35;12.00;;;;;;;24.41;50.99;94280.38;5011270;28;99539;-70
2022/09/01 05:31:05;;;;;;;17.40;11.77;;;;;;;24.42;51.22;94276.41;5010970;28;96918;-70
2022/09/01 05:33:33;;;;;;;16.83;11.77;;;;;;;24.39;51.02;94271.78;5010384;28;96871;-69
2022/09/01 05:36:00;;;;;;;13.93;11.35;;;;;;;24.43;50.85;94283.50;5009888;28;100210;-72
2022/09/01 05:38:26;;;;;;;13.50;11.30;;;;;;;24.42;51.11;94270.91;5010726;28;99396;-71
2022/09/01 05:41:03;;;;;;;13.82;11.50;;;;;;;24.44;50.81;94279.50;5011035;28;96667;-70
2022/09/01 05:43:29;;;;;;;12.48;10.57;;;;;;;24.44;51.02;94273.97;5010933;28;96812;-70
2022/09/01 05:45:57;;;;;;;12.93;11.05;;;;;;;24.38;51.17;94270.97;5010520;28;99423;-70
2022/09/01 05:48:22;;;;;;;12.15;10.70;;;;;;;24.41;51.01;94269.34;5010391;28;99342;-70
2022/09/01 05:50:48;;;;;;;13.93;10.95;;;;;;;24.44;51.11;94279.50;5010790;28;97051;-70
2022/09/01 05:53:17;;;;;;;12.85;10.73;;;;;;;24.45;50.88;94275.53;5011334;28;97171;-72
2022/09/01 05:55:46;;;;;;;12.25;10.55;;;;;;;24.45;51.10;94281.03;5010266;28;99134;-71
2022/09/01 05:58:13;;;;;;;12.05;10.55;;;;;;;24.46;51.16;94281.84;5010277;28;99804;-71
2022/09/01 06:00:43;;;;;;;13.70;10.77;;;;;;;24.40;51.33;94267.81;5010354;28;96824;-70
2022/09/01 06:03:09;;;;;;;13.52;11.10;;;;;;;24.45;51.16;94283.81;5010945;28;97020;-69
2022/09/01 06:05:35;;;;;;;12.48;10.65;;;;;;;24.40;50.98;94265.03;5010469;28;99467;-70
2022/09/01 06:08:03;;;;;;;15.98;10.90;;;;;;;24.45;51.03;94274.75;5010232;28;99150;-69
2022/09/01 06:10:29;;;;;;;14.05;10.43;;;;;;;24.40;50.84;94265.03;5010740;28;96898;-69
2022/09/01 06:12:55;;;;;;;13.35;10.85;;;;;;;24.42;50.89;94270.91;5010565;28;96919;-70
2022/09/01 06:15:21;;;;;;;13.55;10.68;;;;;;;24.45;50.93;94269.25;5010061;28;99659;-72
2022/09/01 06:17:47;;;;;;;12.73;10.63;;;;;;;24.46;51.04;94268.81;5010376;28;99475;-70
2022/09/01 06:20:13;;;;;;;14.02;11.45;;;;;;;24.45;51.10;94275.53;5010374;28;96720;-68
2022/09/01 06:22:39;;;;;;;14.43;10.52;;;;;;;24.47;51.15;94267.59;5010657;28;96994;-69
2022/09/01 06:25:07;;;;;;;12.80;10.90;;;;;;;24.46;51.35;94266.03;5009763;28;99584;-70
2022/09/01 06:27:33;;;;;;;13.68;11.02;;;;;;;24.47;51.40;94270.34;5010287;28;99308;-68
2022/09/01 06:29:58;;;;;;;14.07;11.02;;;;;;;24.46;51.09;94262.53;5008777;28;96915;-72
2022/09/01 06:32:24;;;;;;;12.68;10.32;;;;;;;24.49;51.22;94267.16;5010476;28;96991;-69
2022/09/01 06:34:50;;;;;;;12.77;10.73;;;;;;;24.48;51.06;94263.63;5009980;28;99835;-70
2022/09/01 06:37:16;;;;;;;13.30;11.52;;;;;;;24.51;51.16;94265.50;5009614;28;99310;-70
2022/09/01 06:39:42;;;;;;;13.93;11.05;;;;;;;24.52;52.94;94258.78;5010559;28;97046;-70
2022/09/01 06:42:10;;;;;;;11.30;9.95;;;;;;;24.57;52.89;94254.72;5012087;28;96899;-72
2022/09/01 06:44:35;;;;;;;12.15;9.90;;;;;;;24.53;51.73;94243.78;5011348;28;99602;-70
2022/09/01 06:47:01;;;;;;;14.00;10.90;;;;;;;24.53;51.58;94243.78;5013760;28;99388;-71
2022/09/01 06:49:35;;;;;;;11.45;9.90;;;;;;;24.60;51.25;94259.38;5013939;28;96829;-69
2022/09/01 06:52:04;;;;;;;13.02;10.40;;;;;;;24.60;51.56;94261.34;5014084;28;96884;-69
2022/09/01 06:54:34;;;;;;;12.52;10.10;;;;;;;24.59;51.67;94257.84;5014031;28;100081;-71
2022/09/01 06:57:02;;;;;;;12.82;10.77;;;;;;;24.54;51.72;94250.09;5014362;28;99344;-70
2022/09/01 06:59:30;;;;;;;11.90;10.50;;;;;;;24.54;51.54;94259.13;5015011;28;96728;-71
2022/09/01 07:02:00;;;;;;;15.68;10.38;;;;;;;24.56;51.50;94264.22;5013859;28;96901;-69
2022/09/01 07:04:28;;;;;;;13.93;10.77;;;;;;;24.56;51.56;94264.22;5014119;28;99474;-68
2022/09/01 07:06:54;;;;;;;13.18;10.60;;;;;;;24.54;51.73;94261.88;5014093;28;99086;-71
2022/09/01 07:09:19;;;;;;;17.17;10.73;;;;;;;24.54;51.81;94261.88;5013875;28;96775;-72
2022/09/01 07:11:45;;;;;;;13.60;10.77;;;;;;;24.54;51.56;94264.66;5014222;28;97265;-68
2022/09/01 07:14:15;;;;;;;14.38;11.00;;;;;;;24.54;51.95;94261.13;5013603;28;99802;-71
2022/09/01 07:16:40;;;;;;;13.25;11.07;;;;;;;24.53;51.92;94259.56;5013968;28;99910;-69
2022/09/01 07:19:13;;;;;;;14.65;10.98;;;;;;;24.46;51.61;94255.00;5014542;28;97023;-71
2022/09/01 07:21:39;;;;;;;14.77;11.80;;;;;;;24.52;52.10;94264.31;5014763;28;96764;-72
2022/09/01 07:24:05;;;;;;;16.17;11.32;;;;;;;24.49;52.21;94254.13;5014175;28;99610;-70
2022/09/01 07:26:34;;;;;;;15.95;11.52;;;;;;;24.50;52.00;94255.69;5014038;28;99297;-70
2022/09/01 07:29:02;;;;;;;14.88;11.07;;;;;;;24.51;51.98;94257.22;5013968;28;96909;-69
2022/09/01 07:31:34;;;;;;;15.55;11.50;;;;;;;24.48;52.22;94260.09;5014438;28;97275;-68
2022/09/01 07:34:03;;;;;;;12.98;10.68;;;;;;;24.46;51.94;94255.00;5013636;28;99835;-69
2022/09/01 07:36:28;;;;;;;14.05;10.82;;;;;;;24.49;51.89;94248.59;5013920;28;99314;-72
2022/09/01 07:38:54;;;;;;;13.50;11.30;;;;;;;24.52;52.28;94253.25;5013625;28;96690;-69
2022/09/01 07:41:20;;;;;;;16.10;12.07;;;;;;;24.47;52.38;94251.03;5013703;28;96956;-71
2022/09/01 07:43:46;;;;;;;15.32;12.02;;;;;;;24.52;52.03;94258.78;5013692;28;99774;-71
2022/09/01 07:46:11;;;;;;;15.15;11.57;;;;;;;24.50;52.20;94261.19;5014064;28;98839;-69
2022/09/01 07:48:37;;;;;;;14.80;11.48;;;;;;;24.52;52.18;94258.78;5013847;28;96859;-70
2022/09/01 07:51:02;;;;;;;16.05;11.85;;;;;;;24.52;52.05;94260.78;5014051;28;96751;-72
2022/09/01 07:53:32;;;;;;;16.27;11.52;;;;;;;24.50;52.30;94249.41;5013900;28;99365;-69
2022/09/01 07:56:06;;;;;;;15.98;11.85;;;;;;;24.51;52.40;94257.22;5013881;28;99530;-72
2022/09/01 07:58:32;;;;;;;15.23;11.45;;;;;;;24.51;52.18;94257.22;5013141;28;96853;-71
2022/09/01 08:01:00;;;;;;;14.77;11.57;;;;;;;24.53;52.39;94260.34;5013751;28;96930;-68
2022/09/01 08:03:25;;;;;;;14.90;11.55;;;;;;;24.53;52.10;94263.09;5012547;28;99729;-68
2022/09/01 08:05:56;;;;;;;18.92;11.15;;;;;;;24.54;52.39;94263.88;5013510;28;99543;-71
2022/09/01 08:08:22;;;;;;;15.35;11.68;;;;;;;24.54;52.37;94264.66;5013514;28;96709;-69
2022/09/01 08:10:47;;;;;;;14.85;11.35;;;;;;;24.49;52.23;94259.66;5013729;28;96916;-71
2022/09/01 08:13:13;;;;;;;13.40;11.20;;;;;;;24.53;52.14;94260.34;5012970;28;99519;-70
2022/09/01 08:15:39;;;;;;;15.57;12.07;;;;;;;24.54;52.43;94253.59;5012867;28;99384;-67
2022/09/01 08:18:05;;;;;;;14.45;11.30;;;;;;;24.55;52.57;94255.16;5012948;28;96675;-68
2022/09/01 08:20:33;;;;;;;15.45;11.77;;;;;;;24.51;52.26;94246.19;5013748;28;96973;-71
2022/09/01 08:22:59;;;;;;;15.80;11.90;;;;;;;24.55;52.09;94257.16;5012773;28;99593;-69
2022/09/01 08:25:25;;;;;;;16.83;12.25;;;;;;;24.52;52.14;94256.03;5012914;28;99260;-69
2022/09/01 08:27:50;;;;;;;13.70;11.38;;;;;;;24.55;52.48;94257.91;5012447;28;96869;-69
2022/09/01 08:30:16;;;;;;;15.85;11.77;;;;;;;24.53;52.25;94241.00;5013011;28;96947;-68
2022/09/01 08:32:41;;;;;;;14.20;11.70;;;;;;;24.52;52.16;94231.19;5013037;28;99758;-71
2022/09/01 08:35:08;;;;;;;15.73;11.57;;;;;;;24.57;52.04;94238.94;5013016;28;99298;-70
2022/09/01 08:37:34;;;;;;;15.95;11.70;;;;;;;24.58;52.13;94246.00;5012922;28;96759;-70
2022/09/01 08:39:59;;;;;;;15.23;12.15;;;;;;;24.58;52.16;94240.47;5012908;28;96890;-73
2022/09/01 08:42:25;;;;;;;14.23;11.85;;;;;;;24.61;52.21;94238.84;5010640;28;99824;-68
2022/09/01 08:44:59;;;;;;;17.10;12.18;;;;;;;24.60;52.31;94239.28;5012744;28;99603;-71
2022/09/01 08:47:24;;;;;;;16.73;12.07;;;;;;;24.62;52.60;94242.38;5011868;28;96903;-71
2022/09/01 08:49:50;;;;;;;15.07;12.05;;;;;;;24.62;52.12;94242.38;5012677;28;96913;-70
2022/09/01 08:52:26;;;;;;;14.15;11.45;;;;;;;24.63;52.52;94235.63;5012278;28;99529;-69
2022/09/01 08:55:16;;;;;;;14.52;11.65;;;;;;;24.58;52.04;94218.41;5011389;28;99508;-70
2022/09/01 08:57:44;;;;;;;15.95;12.18;;;;;;;24.63;52.37;94230.13;5012698;28;96626;-73
2022/09/01 09:00:12;;;;;;;17.05;12.40;;;;;;;24.64;52.43;94231.66;5011712;28;97046;-71
2022/09/01 09:03:07;;;;;;;14.23;11.45;;;;;;;24.65;52.57;94222.19;5012495;28;100611;-70
2022/09/01 09:05:56;;;;;;;16.13;11.82;;;;;;;24.65;52.45;94222.19;5011083;28;98276;-73
2022/09/01 09:09:00;;;;;;;15.43;12.00;;;;;;;24.66;52.69;94213.47;5011602;28;96977;-72
2022/09/01 09:11:57;;;;;;;16.15;12.02;;;;;;;24.66;52.55;94212.69;5012991;28;97009;-69
2022/09/01 09:14:47;;;;;;;14.63;11.95;;;;;;;24.67;52.55;94219.75;5012420;28;99583;-70
2022/09/01 09:17:13;;;;;;;16.80;11.85;;;;;;;24.65;52.29;94205.59;5012080;28;99216;-70
2022/09/01 09:19:42;;;;;;;14.27;11.77;;;;;;;24.67;52.46;94203.97;5011017;28;96818;-70
2022/09/01 09:22:10;;;;;;;15.32;11.65;;;;;;;24.69;52.44;94200.75;4994850;28;96885;-69
2022/09/01 09:24:48;;;;;;;14.32;11.45;;;;;;;24.74;52.51;94197.50;5012302;28;99673;-69
2022/09/01 09:27:26;;;;;;;15.20;11.60;;;;;;;24.75;52.10;94210.09;5011313;28;99651;-69
2022/09/01 09:29:57;;;;;;;16.13;12.00;;;;;;;24.74;52.39;94208.53;5011067;28;96771;-68
2022/09/01 09:32:23;;;;;;;15.32;12.05;;;;;;;24.76;52.27;94200.59;5011833;28;97091;-69
2022/09/01 09:34:49;;;;;;;15.93;11.55;;;;;;;24.77;52.29;94196.63;5010634;28;99717;-71
2022/09/01 09:37:27;;;;;;;14.50;10.77;;;;;;;24.78;52.28;94191.88;5010753;28;99303;-72
2022/09/01 09:40:08;;;;;;;13.63;11.77;;;;;;;24.82;52.15;94196.09;5011960;28;96659;-69
2022/09/01 09:42:33;;;;;;;15.50;11.20;;;;;;;24.78;52.55;94184.38;5011635;28;96937;-70
2022/09/01 09:44:59;;;;;;;15.00;12.10;;;;;;;24.84;52.51;94190.13;5009495;28;99724;-72
2022/09/01 09:47:39;;;;;;;18.55;12.75;;;;;;;24.85;52.19;94189.69;5011422;28;101150;-69
2022/09/01 09:50:17;;;;;;;15.02;11.18;;;;;;;24.86;52.65;94188.47;5012312;28;96831;-69
2022/09/01 09:52:45;;;;;;;17.25;11.30;;;;;;;24.84;52.59;94190.91;5012339;28;96935;-71
2022/09/01 09:55:21;;;;;;;21.63;11.65;;;;;;;24.82;52.51;94193.31;5011642;28;100140;-69
2022/09/01 09:57:47;;;;;;;18.23;11.35;;;;;;;24.81;52.67;94188.22;5011428;28;99334;-70
2022/09/01 10:00:20;;;;;;;22.85;12.23;;;;;;;24.81;52.62;94186.25;5011161;28;96884;-70
2022/09/01 10:02:50;;;;;;;17.30;11.60;;;;;;;24.79;52.68;94185.91;5011310;28;96912;-72
2022/09/01 10:05:38;;;;;;;20.45;12.07;;;;;;;24.79;52.77;94194.19;5010599;28;99240;-70
2022/09/01 10:08:36;;;;;;;17.73;12.18;;;;;;;24.78;52.78;94181.59;5011413;28;99710;-68
2022/09/01 10:11:02;;;;;;;20.40;11.90;;;;;;;24.77;52.95;94185.56;5011672;28;96696;-69
2022/09/01 10:13:28;;;;;;;18.42;11.32;;;;;;;24.74;53.13;94186.44;5011968;28;96952;-70
2022/09/01 10:15:56;;;;;;;21.17;12.85;;;;;;;24.71;52.92;94173.50;5011910;28;99470;-69
2022/09/01 10:18:23;;;;;;;18.27;11.75;;;;;;;24.75;53.06;94182.47;5010643;28;99379;-67
2022/09/01 10:21:09;;;;;;;16.85;11.25;;;;;;;24.76;52.90;94184.03;5014077;28;96741;-70
2022/09/01 10:23:35;;;;;;;18.33;11.00;;;;;;;24.73;53.16;94173.84;4997871;28;97040;-71
2022/09/01 10:26:14;;;;;;;18.02;11.93;;;;;;;24.69;53.03;94167.63;5014074;28;100209;-69
2022/09/01 10:28:53;;;;;;;18.00;12.38;;;;;;;24.71;52.90;94173.50;5014096;28;99628;-70
2022/09/01 10:31:19;;;;;;;17.70;11.90;;;;;;;24.71;53.13;94170.72;5014284;28;97986;-71
2022/09/01 10:33:44;;;;;;;17.52;11.43;;;;;;;24.71;52.92;94170.72;5014252;28;96900;-68
2022/09/01 10:36:10;;;;;;;16.20;11.90;;;;;;;24.70;53.33;94172.72;5012520;28;99335;-71
2022/09/01 10:38:35;;;;;;;18.38;11.88;;;;;;;24.72;53.44;94166.78;5013214;28;99277;-69
2022/09/01 10:41:07;;;;;;;18.70;11.70;;;;;;;24.71;53.41;94171.53;5014048;28;97170;-73
2022/09/01 10:43:40;;;;;;;17.15;11.70;;;;;;;24.73;53.17;94170.34;5015054;28;96847;-70
2022/09/01 10:46:21;;;;;;;19.98;11.55;;;;;;;24.74;53.35;94169.09;5013243;28;99181;-69
2022/09/01 10:48:50;;;;;;;14.30;11.40;;;;;;;24.75;53.27;94171.44;5014631;28;99119;-69
2022/09/01 10:51:16;;;;;;;19.40;12.32;;;;;;;24.75;53.06;94165.13;5013305;28;97077;-69
2022/09/01 10:53:51;;;;;;;18.13;11.52;;;;;;;24.67;52.97;94148.75;5014345;28;96959;-69
2022/09/01 10:56:37;;;;;;;14.80;10.60;;;;;;;24.72;52.91;94152.97;5012571;28;100318;-71
2022/09/01 10:59:22;;;;;;;16.77;11.45;;;;;;;24.76;52.91;94161.94;5013655;28;99568;-71
2022/09/01 11:01:48;;;;;;;18.92;11.73;;;;;;;24.79;53.15;94166.59;5013515;28;97130;-71
2022/09/01 11:04:13;;;;;;;18.65;11.32;;;;;;;24.79;53.11;94149.22;5013830;28;96965;-67
2022/09/01 11:06:41;;;;;;;18.42;11.70;;;;;;;24.79;52.90;94150.00;5013411;28;99397;-68
2022/09/01 11:09:47;;;;;;;17.42;11.50;;;;;;;24.79;53.08;94155.53;5013367;28;98729;-72
2022/09/01 11:12:34;;;;;;;16.58;11.23;;;;;;;24.76;52.96;94150.88;5011832;28;96667;-71
2022/09/01 11:15:12;;;;;;;16.25;10.90;;;;;;;24.77;53.29;94144.16;5012795;28;96955;-72
2022/09/01 11:17:39;;;;;;;15.90;10.48;;;;;;;24.76;52.97;94145.38;5014296;28;99782;-70
2022/09/01 11:20:35;;;;;;;16.63;11.50;;;;;;;24.78;52.98;94142.94;5013031;28;99330;-71
2022/09/01 11:23:03;;;;;;;15.60;11.52;;;;;;;24.74;53.28;94133.97;5013203;28;96665;-69
2022/09/01 11:25:42;;;;;;;15.38;10.73;;;;;;;24.71;52.93;94132.84;5012785;28;96915;-71
2022/09/01 11:28:14;;;;;;;17.13;10.93;;;;;;;24.76;53.41;94137.09;5012239;28;99423;-69
2022/09/01 11:30:51;;;;;;;16.67;11.35;;;;;;;24.77;53.41;94130.34;5013868;28;99647;-68
2022/09/01 11:33:46;;;;;;;16.20;11.55;;;;;;;24.77;53.17;94130.34;5012689;28;96953;-70
2022/09/01 11:36:23;;;;;;;17.75;11.68;;;;;;;24.77;53.13;94124.81;5014201;28;96924;-70